Time;durP1;ratioP1;P1;durP2;ratioP2;P2;SDS_P1;SDS_P2;PMS_P1;PMS_P2;Temp;Humidity;BMP_temperature;BMP_pressure;BME280_temperature;BME280_humidity;BME280_pressure;Samples;Min_cycle;Max_cycle;Signal;HPM_P1;HPM_P2
2021/04/11 00:01:57;;;;;;;3.13;1.63;;;11.20;86.60;;;;;;5021810;28;20714;-71
2021/04/11 00:04:24;;;;;;;2.23;2.00;;;11.10;85.70;;;;;;5022274;28;20456;-70
2021/04/11 00:06:51;;;;;;;2.50;1.77;;;10.90;86.50;;;;;;5021330;28;20463;-71
2021/04/11 00:09:17;;;;;;;4.53;2.38;;;10.90;86.60;;;;;;5021259;28;20937;-71
2021/04/11 00:11:43;;;;;;;3.25;1.70;;;10.90;86.80;;;;;;5021607;28;20213;-71
2021/04/11 00:14:09;;;;;;;1.50;1.40;;;10.80;86.20;;;;;;5021515;28;20640;-72
2021/04/11 00:16:36;;;;;;;3.80;1.92;;;10.70;86.10;;;;;;5020734;28;20198;-71
2021/04/11 00:19:02;;;;;;;2.05;1.75;;;10.70;87.00;;;;;;5020339;28;20438;-71
2021/04/11 00:21:29;;;;;;;2.22;1.85;;;10.60;86.40;;;;;;5021369;28;20210;-71
2021/04/11 00:23:55;;;;;;;2.65;2.00;;;10.60;86.80;;;;;;5021863;28;20259;-70
2021/04/11 00:26:22;;;;;;;2.30;1.75;;;10.60;87.10;;;;;;5021695;28;20212;-70
2021/04/11 00:28:48;;;;;;;2.38;2.00;;;10.50;86.90;;;;;;5020493;28;20230;-70
2021/04/11 00:31:14;;;;;;;1.50;1.40;;;10.50;86.80;;;;;;5020565;28;20495;-71
2021/04/11 00:33:43;;;;;;;2.13;1.92;;;10.50;86.70;;;;;;5020951;28;20858;-71
2021/04/11 00:36:12;;;;;;;3.25;1.88;;;10.50;87.70;;;;;;5021394;28;20230;-71
2021/04/11 00:38:39;;;;;;;3.25;1.45;;;10.50;87.00;;;;;;5019882;28;20713;-71
2021/04/11 00:41:13;;;;;;;2.60;1.75;;;10.40;88.10;;;;;;5021422;28;20301;-71
2021/04/11 00:43:39;;;;;;;4.10;1.90;;;10.30;88.30;;;;;;5021414;28;20380;-71
2021/04/11 00:46:17;;;;;;;1.90;1.55;;;10.30;88.70;;;;;;5021184;28;20201;-71
2021/04/11 00:48:43;;;;;;;2.38;1.67;;;10.10;88.30;;;;;;5020061;28;20545;-70
2021/04/11 00:51:12;;;;;;;1.95;1.75;;;10.10;88.80;;;;;;5020751;28;20248;-71
2021/04/11 00:53:39;;;;;;;1.92;1.45;;;10.00;88.40;;;;;;5020824;28;20206;-71
2021/04/11 00:56:07;;;;;;;1.98;1.80;;;10.00;87.80;;;;;;5021863;28;20221;-70
2021/04/11 00:58:34;;;;;;;2.00;1.80;;;10.10;88.00;;;;;;5023238;28;20222;-71
2021/04/11 01:01:01;;;;;;;2.00;1.63;;;10.20;87.70;;;;;;5024221;28;20205;-71
2021/04/11 01:03:29;;;;;;;2.47;1.77;;;10.30;87.60;;;;;;5023867;28;20206;-71
2021/04/11 01:05:56;;;;;;;1.80;1.65;;;10.30;87.70;;;;;;5024305;28;20641;-71
2021/04/11 01:08:27;;;;;;;2.15;1.60;;;10.30;87.20;;;;;;5023486;28;20591;-71
2021/04/11 01:11:00;;;;;;;2.40;1.67;;;10.40;87.10;;;;;;5025379;28;20206;-71
2021/04/11 01:13:27;;;;;;;4.13;1.67;;;10.40;87.10;;;;;;5024484;28;20802;-70
2021/04/11 01:15:54;;;;;;;3.65;1.77;;;10.50;86.60;;;;;;5023212;28;20230;-71
2021/04/11 01:18:20;;;;;;;2.97;2.08;;;10.50;87.80;;;;;;5023303;28;20248;-72
2021/04/11 01:20:47;;;;;;;2.38;1.63;;;10.50;88.80;;;;;;5023524;28;20210;-71
2021/04/11 01:23:24;;;;;;;2.78;1.50;;;10.40;89.40;;;;;;5027090;28;20202;-71
2021/04/11 01:25:52;;;;;;;2.50;1.85;;;10.30;90.00;;;;;;5026999;28;20584;-70
2021/04/11 01:28:23;;;;;;;1.90;1.75;;;10.10;90.30;;;;;;5026728;28;20226;-71
2021/04/11 01:30:53;;;;;;;2.20;1.90;;;10.00;90.50;;;;;;5026847;28;20216;-71
2021/04/11 01:33:22;;;;;;;2.55;1.70;;;10.00;90.70;;;;;;5027050;28;20276;-71
2021/04/11 01:35:52;;;;;;;3.22;1.55;;;9.90;91.10;;;;;;5027278;28;20696;-71
2021/04/11 01:38:21;;;;;;;2.42;1.75;;;9.80;91.60;;;;;;5026798;28;20225;-71
2021/04/11 01:40:54;;;;;;;2.17;1.88;;;9.70;91.70;;;;;;5026759;28;20205;-71
2021/04/11 01:43:21;;;;;;;2.03;1.40;;;9.60;91.60;;;;;;5026897;28;20224;-70
2021/04/11 01:45:48;;;;;;;3.85;1.73;;;9.50;91.70;;;;;;5026564;28;20206;-71
2021/04/11 01:48:15;;;;;;;2.42;1.60;;;9.50;91.70;;;;;;5026320;28;20664;-71
2021/04/11 01:50:42;;;;;;;3.28;1.98;;;9.50;92.00;;;;;;5026618;28;20205;-71
2021/04/11 01:53:11;;;;;;;5.00;1.55;;;9.50;92.30;;;;;;5026426;28;20205;-71
2021/04/11 01:55:37;;;;;;;1.80;1.50;;;9.40;92.40;;;;;;5029155;28;20233;-72
2021/04/11 01:58:05;;;;;;;4.05;2.10;;;9.40;92.70;;;;;;5029595;28;20225;-72
2021/04/11 02:00:36;;;;;;;2.20;1.70;;;9.40;93.00;;;;;;5028935;28;20213;-71
2021/04/11 02:03:06;;;;;;;2.22;1.70;;;9.40;92.90;;;;;;5030637;28;20198;-72
2021/04/11 02:05:37;;;;;;;1.80;1.70;;;9.40;92.90;;;;;;5030329;28;20198;-71
2021/04/11 02:08:04;;;;;;;1.70;1.60;;;9.40;92.70;;;;;;5030452;28;20222;-71
2021/04/11 02:10:33;;;;;;;2.55;1.65;;;9.40;92.50;;;;;;5030350;28;20256;-71
2021/04/11 02:13:00;;;;;;;1.75;1.52;;;9.40;92.80;;;;;;5030740;28;20228;-72
2021/04/11 02:15:31;;;;;;;1.85;1.52;;;9.40;92.60;;;;;;5030493;28;20226;-71
2021/04/11 02:17:58;;;;;;;2.13;1.60;;;9.40;92.70;;;;;;5030317;28;20226;-71
2021/04/11 02:20:26;;;;;;;2.25;1.50;;;9.40;92.90;;;;;;5030422;28;20197;-72
2021/04/11 02:22:54;;;;;;;2.28;1.50;;;9.40;93.00;;;;;;5030937;28;20202;-72
2021/04/11 02:25:24;;;;;;;2.08;1.88;;;9.40;92.80;;;;;;5030526;28;20198;-72
2021/04/11 02:27:50;;;;;;;1.77;1.60;;;9.40;92.60;;;;;;5030897;28;20221;-71
2021/04/11 02:30:20;;;;;;;2.50;1.70;;;9.50;93.40;;;;;;5029963;28;20572;-71
2021/04/11 02:32:47;;;;;;;2.60;1.45;;;9.50;93.40;;;;;;5029809;28;20205;-71
2021/04/11 02:35:17;;;;;;;3.55;1.83;;;9.50;93.70;;;;;;5029894;28;20701;-71
2021/04/11 02:37:46;;;;;;;2.15;1.58;;;9.40;93.70;;;;;;5030381;28;20221;-72
2021/04/11 02:40:19;;;;;;;2.15;1.83;;;9.40;93.30;;;;;;5029601;28;20209;-71
2021/04/11 02:42:46;;;;;;;1.90;1.70;;;9.40;93.40;;;;;;5117058;22;20232;-73
2021/04/11 02:45:16;;;;;;;1.58;1.48;;;9.50;93.60;;;;;;5068566;28;20192;-72
2021/04/11 02:47:44;;;;;;;5.88;1.75;;;9.50;93.60;;;;;;5069935;28;20228;-72
2021/04/11 02:50:13;;;;;;;2.13;1.85;;;9.50;93.90;;;;;;5058212;28;20201;-73
2021/04/11 02:52:46;;;;;;;2.55;2.20;;;9.50;93.30;;;;;;5050217;28;20205;-73
2021/04/11 02:55:14;;;;;;;4.75;1.90;;;9.50;93.00;;;;;;5050262;28;20311;-72
2021/04/11 02:57:40;;;;;;;1.88;1.60;;;9.60;93.10;;;;;;5049969;28;20647;-72
2021/04/11 03:00:09;;;;;;;2.67;1.92;;;9.60;93.00;;;;;;5049496;28;20212;-73
2021/04/11 03:02:35;;;;;;;1.98;1.75;;;9.70;92.70;;;;;;5049992;28;20691;-72
2021/04/11 03:05:01;;;;;;;2.00;1.70;;;9.70;92.60;;;;;;5049935;28;20201;-72
2021/04/11 03:07:36;;;;;;;4.70;2.30;;;9.80;93.20;;;;;;5049772;28;20232;-74
2021/04/11 03:10:06;;;;;;;2.28;1.80;;;9.80;93.20;;;;;;5048815;28;20632;-73
2021/04/11 03:12:33;;;;;;;2.10;1.90;;;9.90;93.10;;;;;;5048048;28;20220;-73
2021/04/11 03:15:00;;;;;;;1.95;1.67;;;9.90;92.60;;;;;;5049947;28;20217;-73
2021/04/11 03:17:28;;;;;;;2.90;1.90;;;9.90;92.60;;;;;;5049570;28;20228;-73
2021/04/11 03:19:58;;;;;;;2.28;2.08;;;9.90;92.00;;;;;;5049080;28;20215;-73
2021/04/11 03:22:24;;;;;;;2.20;2.00;;;10.00;91.40;;;;;;5049628;28;20209;-73
2021/04/11 03:24:52;;;;;;;1.90;1.70;;;10.00;91.60;;;;;;5049745;28;20205;-73
2021/04/11 03:27:24;;;;;;;3.83;2.33;;;10.10;91.00;;;;;;5049430;28;20584;-74
2021/04/11 03:29:57;;;;;;;2.55;2.00;;;10.20;91.00;;;;;;5049113;28;20560;-73
2021/04/11 03:32:27;;;;;;;2.55;2.00;;;10.20;90.70;;;;;;5049425;28;20205;-72
2021/04/11 03:34:55;;;;;;;1.58;1.48;;;10.30;90.70;;;;;;5049371;28;20766;-72
2021/04/11 03:37:24;;;;;;;2.22;1.75;;;10.30;91.10;;;;;;5049082;28;20228;-73
2021/04/11 03:39:51;;;;;;;3.00;2.20;;;10.20;91.30;;;;;;5049124;28;20212;-73
2021/04/11 03:42:20;;;;;;;3.10;1.80;;;10.30;91.10;;;;;;5048785;28;20216;-72
2021/04/11 03:44:47;;;;;;;2.75;1.70;;;10.20;91.70;;;;;;5049003;28;20258;-73
2021/04/11 03:47:17;;;;;;;2.55;1.90;;;10.20;92.20;;;;;;5048760;28;20205;-72
2021/04/11 03:49:48;;;;;;;3.20;1.85;;;10.10;92.40;;;;;;5048728;28;20220;-73
2021/04/11 03:52:22;;;;;;;1.77;1.67;;;10.10;92.50;;;;;;5048900;28;20202;-73
2021/04/11 03:54:48;;;;;;;2.63;2.00;;;10.10;92.70;;;;;;5048988;28;20221;-73
2021/04/11 03:57:20;;;;;;;2.83;1.65;;;10.00;92.70;;;;;;5048551;28;20216;-73
2021/04/11 03:59:51;;;;;;;2.40;1.80;;;9.90;93.50;;;;;;5048499;28;20197;-73
2021/04/11 04:02:19;;;;;;;1.60;1.50;;;9.90;94.00;;;;;;5048727;28;20209;-73
2021/04/11 04:04:47;;;;;;;2.95;1.83;;;9.80;94.30;;;;;;5049027;28;20204;-73
2021/04/11 04:07:18;;;;;;;2.55;2.08;;;9.80;94.20;;;;;;5048344;28;20577;-72
2021/04/11 04:09:51;;;;;;;5.05;2.83;;;9.70;94.80;;;;;;5047974;28;20233;-73
2021/04/11 04:12:33;;;;;;;2.22;2.00;;;9.60;94.70;;;;;;5048910;28;20212;-73
2021/04/11 04:15:21;;;;;;;2.15;1.95;;;9.50;94.60;;;;;;5048677;28;20221;-73
2021/04/11 04:18:02;;;;;;;2.35;1.95;;;9.50;94.90;;;;;;5049050;28;20711;-73
2021/04/11 04:20:39;;;;;;;2.70;1.80;;;9.50;95.10;;;;;;5048035;28;20208;-72
2021/04/11 04:23:16;;;;;;;2.10;1.90;;;9.40;95.10;;;;;;5048604;28;20679;-72
2021/04/11 04:26:08;;;;;;;2.40;2.00;;;9.40;95.60;;;;;;5048595;28;20286;-73
2021/04/11 04:28:55;;;;;;;2.00;1.80;;;9.30;95.80;;;;;;5048216;28;20842;-73
2021/04/11 04:31:29;;;;;;;3.10;1.92;;;9.30;95.90;;;;;;5048630;28;20209;-73
2021/04/11 04:34:04;;;;;;;1.90;1.77;;;9.30;96.70;;;;;;5048587;28;20201;-72
2021/04/11 04:36:39;;;;;;;7.30;2.58;;;9.30;96.40;;;;;;5048515;28;20581;-73
2021/04/11 04:39:22;;;;;;;2.60;2.30;;;9.20;96.30;;;;;;5047665;28;20560;-72
2021/04/11 04:41:55;;;;;;;3.72;2.20;;;9.30;96.20;;;;;;5048695;28;20208;-72
2021/04/11 04:44:30;;;;;;;2.25;1.95;;;9.30;96.10;;;;;;5048428;28;20243;-72
2021/04/11 04:47:06;;;;;;;3.70;2.08;;;9.20;96.40;;;;;;5048472;28;20224;-73
2021/04/11 04:49:43;;;;;;;5.88;2.10;;;9.20;95.60;;;;;;5048176;28;20221;-73
2021/04/11 04:52:12;;;;;;;3.85;1.70;;;9.10;96.20;;;;;;5048013;28;20205;-72
2021/04/11 04:54:44;;;;;;;3.97;2.15;;;9.10;96.50;;;;;;5048420;28;20216;-73
2021/04/11 04:57:14;;;;;;;2.72;1.90;;;9.10;96.00;;;;;;5049886;28;20201;-73
2021/04/11 04:59:48;;;;;;;2.00;1.80;;;9.20;95.80;;;;;;5051756;28;20607;-73
2021/04/11 05:02:15;;;;;;;2.30;1.73;;;9.20;95.90;;;;;;5052261;28;20575;-73
2021/04/11 05:04:54;;;;;;;2.10;1.88;;;9.20;95.60;;;;;;5052169;28;20197;-73
2021/04/11 05:07:24;;;;;;;2.15;1.70;;;9.20;95.80;;;;;;5051859;28;20212;-73
2021/04/11 05:09:55;;;;;;;2.05;1.85;;;9.10;95.80;;;;;;5051941;28;20205;-72
2021/04/11 05:12:30;;;;;;;2.33;1.60;;;9.20;95.70;;;;;;5053154;28;20756;-73
2021/04/11 05:15:02;;;;;;;1.92;1.70;;;9.20;95.70;;;;;;5052246;28;20225;-73
2021/04/11 05:17:31;;;;;;;2.38;2.10;;;9.30;95.70;;;;;;5051925;28;20205;-72
2021/04/11 05:20:01;;;;;;;2.97;2.72;;;9.30;96.10;;;;;;5051744;28;20197;-73
2021/04/11 05:22:33;;;;;;;2.42;1.70;;;9.30;96.30;;;;;;5052063;28;20200;-73
2021/04/11 05:25:04;;;;;;;3.28;1.70;;;9.30;96.40;;;;;;5051787;28;20193;-73
2021/04/11 05:27:46;;;;;;;3.00;1.90;;;9.40;96.30;;;;;;5052055;28;20212;-72
2021/04/11 05:30:18;;;;;;;2.20;1.90;;;9.30;96.40;;;;;;5050955;28;20239;-73
2021/04/11 05:32:47;;;;;;;2.88;2.28;;;9.40;96.80;;;;;;5052023;28;20197;-73
2021/04/11 05:35:13;;;;;;;3.08;2.20;;;9.30;97.00;;;;;;5051236;28;20290;-72
2021/04/11 05:37:50;;;;;;;2.75;2.33;;;9.40;97.40;;;;;;5051368;28;20646;-72
2021/04/11 05:40:20;;;;;;;2.53;2.10;;;9.40;97.50;;;;;;5051261;28;20239;-72
2021/04/11 05:42:55;;;;;;;2.50;1.92;;;9.40;97.60;;;;;;5051382;28;20220;-72
2021/04/11 05:45:26;;;;;;;1.85;1.75;;;9.40;97.70;;;;;;5051339;28;20551;-73
2021/04/11 05:48:05;;;;;;;2.72;1.90;;;9.50;98.00;;;;;;5051395;28;20225;-72
2021/04/11 05:50:37;;;;;;;2.17;1.92;;;9.60;98.00;;;;;;5051248;28;20212;-73
2021/04/11 05:53:08;;;;;;;4.45;2.33;;;9.60;97.90;;;;;;5051433;28;20208;-73
2021/04/11 05:55:38;;;;;;;2.22;1.90;;;9.70;98.00;;;;;;5051142;28;20247;-73
2021/04/11 05:58:11;;;;;;;2.30;2.03;;;9.80;97.70;;;;;;5048729;28;20282;-73
2021/04/11 06:00:42;;;;;;;2.85;2.28;;;9.90;98.30;;;;;;5051274;28;20572;-73
2021/04/11 06:03:14;;;;;;;3.20;2.33;;;9.90;98.30;;;;;;5051127;28;20197;-72
2021/04/11 06:05:47;;;;;;;3.20;2.40;;;9.90;98.20;;;;;;5050822;28;20197;-72
2021/04/11 06:08:19;;;;;;;2.45;2.15;;;10.00;98.00;;;;;;5050244;28;20217;-72
2021/04/11 06:10:55;;;;;;;3.83;2.10;;;10.00;98.20;;;;;;5051313;28;20216;-73
2021/04/11 06:13:28;;;;;;;3.55;2.15;;;10.10;98.00;;;;;;5050989;28;20205;-72
2021/04/11 06:16:00;;;;;;;4.55;2.40;;;10.20;97.90;;;;;;5051138;28;20724;-74
2021/04/11 06:18:26;;;;;;;5.00;2.78;;;10.30;97.10;;;;;;5051201;28;20225;-72
2021/04/11 06:20:54;;;;;;;2.92;2.40;;;10.40;96.30;;;;;;5050852;28;20208;-73
2021/04/11 06:23:26;;;;;;;2.78;1.98;;;10.50;95.90;;;;;;5050719;28;20243;-73
2021/04/11 06:26:06;;;;;;;2.72;2.45;;;10.70;95.90;;;;;;5050589;28;20197;-73
2021/04/11 06:28:43;;;;;;;5.60;2.35;;;10.80;96.00;;;;;;5050570;28;20278;-73
2021/04/11 06:31:13;;;;;;;5.57;2.70;;;10.90;95.70;;;;;;5050838;28;20552;-73
2021/04/11 06:33:43;;;;;;;5.22;2.47;;;11.10;95.50;;;;;;5050699;28;20216;-72
2021/04/11 06:36:12;;;;;;;3.67;2.50;;;11.20;95.60;;;;;;5050498;28;20307;-73
2021/04/11 06:38:43;;;;;;;5.07;2.57;;;11.30;94.10;;;;;;5049965;28;20236;-73
2021/04/11 06:41:34;;;;;;;5.03;2.50;;;11.30;95.80;;;;;;5050779;28;20470;-73
2021/04/11 06:44:33;;;;;;;4.43;2.30;;;11.50;95.20;;;;;;5050434;28;20471;-72
2021/04/11 06:47:15;;;;;;;2.90;2.20;;;11.80;95.70;;;;;;5050424;28;20462;-72
2021/04/11 06:50:18;;;;;;;4.30;3.03;;;12.00;95.60;;;;;;5050138;28;21040;-73
2021/04/11 06:52:58;;;;;;;2.53;2.10;;;12.30;93.70;;;;;;4969584;28;20461;-73
2021/04/11 06:55:59;;;;;;;3.00;2.30;;;12.50;93.10;;;;;;5042062;28;20487;-73
2021/04/11 06:58:35;;;;;;;3.20;1.90;;;12.70;92.10;;;;;;5048629;28;20485;-72
2021/04/11 07:01:27;;;;;;;3.20;2.10;;;12.90;92.00;;;;;;5050062;28;20461;-74
2021/04/11 07:04:34;;;;;;;6.07;2.50;;;13.10;92.30;;;;;;5049947;28;20459;-73
2021/04/11 07:07:43;;;;;;;2.67;1.93;;;13.20;92.50;;;;;;5050320;28;20458;-73
2021/04/11 07:10:23;;;;;;;2.10;1.90;;;13.50;90.80;;;;;;5049757;28;20823;-73
2021/04/11 07:13:25;;;;;;;2.63;1.70;;;13.70;90.10;;;;;;5050507;28;20459;-73
2021/04/11 07:16:06;;;;;;;2.13;1.80;;;13.70;88.90;;;;;;5049540;28;20475;-73
2021/04/11 07:19:05;;;;;;;2.07;1.70;;;13.70;89.00;;;;;;5049110;28;20505;-71
2021/04/11 07:22:11;;;;;;;1.37;1.27;;;13.80;89.00;;;;;;5049757;28;20455;-71
2021/04/11 07:24:46;;;;;;;2.40;1.73;;;14.00;87.40;;;;;;5048502;28;20834;-72
2021/04/11 07:27:40;;;;;;;2.47;2.20;;;14.20;86.70;;;;;;5050011;28;20474;-72
2021/04/11 07:30:18;;;;;;;2.13;1.80;;;14.40;86.60;;;;;;5020491;28;20448;-73
2021/04/11 07:33:02;;;;;;;3.60;1.80;;;14.40;86.00;;;;;;5057077;28;20447;-73
2021/04/11 07:35:51;;;;;;;2.17;1.70;;;14.40;86.20;;;;;;5048841;28;20491;-72
2021/04/11 07:38:41;;;;;;;2.13;1.85;;;14.60;86.30;;;;;;5048822;28;20797;-71
2021/04/11 07:41:36;;;;;;;2.72;2.00;;;14.60;85.70;;;;;;5048200;28;20480;-70
2021/04/11 07:44:26;;;;;;;3.00;1.73;;;14.70;85.10;;;;;;5048935;28;20221;-70
2021/04/11 07:47:09;;;;;;;2.10;1.53;;;14.80;84.60;;;;;;5049620;28;20467;-71
2021/04/11 07:50:02;;;;;;;1.70;1.60;;;14.90;85.40;;;;;;5049078;28;20475;-71
2021/04/11 07:52:49;;;;;;;3.00;1.70;;;14.90;84.80;;;;;;5049717;28;20474;-72
2021/04/11 07:55:27;;;;;;;4.17;1.80;;;15.10;83.80;;;;;;5048868;28;20479;-71
2021/04/11 07:58:32;;;;;;;2.63;1.57;;;15.40;84.70;;;;;;5048980;28;20483;-70
2021/04/11 08:01:16;;;;;;;5.20;2.00;;;15.50;83.80;;;;;;5007771;28;20832;-70
2021/04/11 08:04:12;;;;;;;3.10;1.67;;;15.80;84.10;;;;;;5049072;28;20837;-69
2021/04/11 08:07:04;;;;;;;2.03;1.83;;;16.00;82.60;;;;;;5048947;28;20455;-69
2021/04/11 08:09:46;;;;;;;1.83;1.50;;;16.10;82.30;;;;;;5048526;28;20545;-70
2021/04/11 08:12:56;;;;;;;2.10;1.60;;;16.40;82.70;;;;;;5048884;28;20455;-70
2021/04/11 08:15:28;;;;;;;1.73;1.47;;;16.80;81.80;;;;;;4967639;28;20510;-70
2021/04/11 08:18:17;;;;;;;2.07;1.40;;;16.90;80.90;;;;;;4967376;28;21018;-70
2021/04/11 08:21:06;;;;;;;1.77;1.47;;;17.20;80.70;;;;;;5018335;28;20466;-70
2021/04/11 08:24:01;;;;;;;1.77;1.67;;;17.70;79.50;;;;;;5049353;28;20469;-71
2021/04/11 08:26:51;;;;;;;3.20;1.47;;;18.20;78.10;;;;;;5048442;28;20451;-71
2021/04/11 08:29:42;;;;;;;2.93;1.30;;;18.70;77.10;;;;;;5044661;28;20479;-72
2021/04/11 08:32:41;;;;;;;1.60;1.20;;;19.20;77.00;;;;;;5050249;28;20467;-68
2021/04/11 08:35:21;;;;;;;1.83;1.23;;;19.90;77.60;;;;;;5052396;28;20493;-71
2021/04/11 08:38:21;;;;;;;1.67;1.57;;;20.40;73.60;;;;;;5051925;28;20490;-70
2021/04/11 08:41:04;;;;;;;1.40;1.20;;;20.20;72.10;;;;;;5050212;28;20455;-70
2021/04/11 08:43:54;;;;;;;2.43;1.30;;;19.10;74.80;;;;;;5081195;22;20572;-91
2021/04/11 08:46:41;;;;;;;2.37;1.60;;;18.70;75.40;;;;;;5062360;28;20455;-91
2021/04/11 08:49:26;;;;;;;3.67;1.40;;;17.90;76.90;;;;;;5075254;28;20496;-91
2021/04/11 08:52:10;;;;;;;2.40;1.60;;;17.30;78.00;;;;;;5077364;28;20490;-91
2021/04/11 08:54:48;;;;;;;2.17;1.40;;;17.20;79.10;;;;;;5080045;22;20482;-73
2021/04/11 08:57:37;;;;;;;1.67;1.57;;;17.10;78.00;;;;;;5071971;28;20852;-72
2021/04/11 09:00:11;;;;;;;1.47;1.17;;;16.70;79.30;;;;;;5051829;28;20459;-72
2021/04/11 09:02:59;;;;;;;1.67;1.43;;;16.60;80.00;;;;;;5052518;28;20530;-75
2021/04/11 09:05:35;;;;;;;1.83;1.47;;;16.50;80.30;;;;;;5052409;28;20455;-74
2021/04/11 09:08:15;;;;;;;2.27;1.37;;;16.40;79.30;;;;;;5051529;28;21066;-73
2021/04/11 09:11:09;;;;;;;2.03;1.30;;;16.30;80.20;;;;;;5051892;28;20954;-74
2021/04/11 09:13:51;;;;;;;2.80;1.47;;;16.10;80.70;;;;;;5053400;28;20463;-73
2021/04/11 09:16:25;;;;;;;1.80;1.47;;;16.20;80.40;;;;;;5053522;28;20541;-74
2021/04/11 09:19:02;;;;;;;1.37;1.27;;;16.20;80.00;;;;;;5051277;28;20482;-74
2021/04/11 09:21:47;;;;;;;2.17;1.67;;;16.30;80.00;;;;;;5051779;28;20939;-74
2021/04/11 09:24:19;;;;;;;3.30;1.40;;;16.30;80.10;;;;;;5052002;28;20962;-74
2021/04/11 09:27:14;;;;;;;1.40;1.20;;;16.40;79.80;;;;;;5051448;28;20459;-74
2021/04/11 09:29:52;;;;;;;1.63;1.40;;;16.60;79.40;;;;;;5051089;28;20475;-74
2021/04/11 09:32:44;;;;;;;2.20;1.70;;;16.60;79.20;;;;;;5051909;28;20951;-74
2021/04/11 09:35:22;;;;;;;1.70;1.50;;;16.80;78.70;;;;;;5051537;28;20467;-74
2021/04/11 09:38:36;;;;;;;2.10;1.60;;;16.90;79.20;;;;;;5051535;28;20483;-74
2021/04/11 09:41:36;;;;;;;1.57;1.47;;;17.40;78.70;;;;;;5050355;28;20981;-73
2021/04/11 09:44:59;;;;;;;2.80;1.60;;;17.40;78.30;;;;;;5026800;28;20471;-73
2021/04/11 09:47:40;;;;;;;1.53;1.43;;;17.80;77.10;;;;;;5051273;28;20466;-73
2021/04/11 09:50:16;;;;;;;4.50;1.90;;;18.80;76.80;;;;;;5050770;28;20858;-74
2021/04/11 09:52:59;;;;;;;4.30;1.67;;;20.10;74.30;;;;;;5051243;28;20458;-74
2021/04/11 09:55:28;;;;;;;2.30;1.70;;;21.80;70.60;;;;;;5051470;28;20617;-74
2021/04/11 09:58:37;;;;;;;1.93;1.60;;;22.80;68.00;;;;;;5050406;28;20502;-73
2021/04/11 10:01:12;;;;;;;3.37;1.80;;;22.40;68.10;;;;;;5050967;28;20832;-73
2021/04/11 10:03:56;;;;;;;4.80;1.80;;;22.40;66.80;;;;;;5051243;28;20458;-73
2021/04/11 10:06:45;;;;;;;2.10;1.90;;;22.70;66.10;;;;;;5051367;28;20464;-75
2021/04/11 10:09:32;;;;;;;3.30;1.60;;;23.30;67.60;;;;;;5050599;28;20488;-73
2021/04/11 10:12:31;;;;;;;2.20;1.70;;;24.00;65.90;;;;;;5051176;28;20881;-73
2021/04/11 10:15:06;;;;;;;1.97;1.60;;;25.10;62.60;;;;;;5050289;28;20459;-73
2021/04/11 10:18:00;;;;;;;3.03;1.60;;;25.60;63.90;;;;;;5050221;28;20451;-72
2021/04/11 10:20:37;;;;;;;2.40;1.80;;;26.10;59.80;;;;;;5049494;28;20455;-73
2021/04/11 10:23:12;;;;;;;2.87;1.73;;;26.40;60.40;;;;;;5050197;28;20470;-73
2021/04/11 10:25:42;;;;;;;2.07;1.67;;;25.80;59.20;;;;;;5050597;28;20451;-73
2021/04/11 10:28:19;;;;;;;3.67;1.70;;;24.60;60.40;;;;;;5050233;28;20543;-72
2021/04/11 10:30:53;;;;;;;1.87;1.33;;;23.30;61.60;;;;;;5050290;28;20554;-74
2021/04/11 10:33:27;;;;;;;1.50;1.23;;;22.60;62.80;;;;;;5050929;28;20471;-73
2021/04/11 10:36:02;;;;;;;1.70;1.50;;;21.60;64.20;;;;;;5050154;28;20656;-72
2021/04/11 10:38:32;;;;;;;2.10;1.90;;;20.50;66.00;;;;;;5050047;28;20486;-73
2021/04/11 10:41:19;;;;;;;2.47;1.87;;;20.10;68.70;;;;;;5049730;28;21614;-72
2021/04/11 10:44:15;;;;;;;2.60;1.47;;;20.00;68.30;;;;;;5049945;28;20869;-73
2021/04/11 10:46:58;;;;;;;1.70;1.60;;;19.90;67.10;;;;;;5049140;28;20460;-73
2021/04/11 10:49:42;;;;;;;2.47;1.40;;;19.50;68.60;;;;;;5050301;28;20537;-73
2021/04/11 10:52:18;;;;;;;1.87;1.30;;;19.10;68.80;;;;;;5050282;28;20474;-72
2021/04/11 10:55:07;;;;;;;1.53;1.40;;;18.80;68.80;;;;;;5048927;28;20470;-72
2021/04/11 10:58:03;;;;;;;1.90;1.60;;;18.50;69.80;;;;;;5047176;28;20460;-73
2021/04/11 11:00:34;;;;;;;2.60;1.73;;;18.30;70.20;;;;;;5045075;28;20820;-72
2021/04/11 11:03:25;;;;;;;3.97;2.23;;;18.10;71.00;;;;;;5044638;28;20462;-72
2021/04/11 11:06:10;;;;;;;2.80;2.00;;;18.20;70.60;;;;;;5046704;28;20466;-73
2021/04/11 11:09:06;;;;;;;2.13;1.77;;;18.10;71.50;;;;;;5046869;28;21043;-74
2021/04/11 11:12:02;;;;;;;2.33;2.00;;;18.30;71.70;;;;;;5046624;28;20463;-73
2021/04/11 11:14:56;;;;;;;2.43;1.60;;;18.40;71.30;;;;;;5012950;28;20471;-73
2021/04/11 11:17:37;;;;;;;2.87;1.70;;;18.50;71.50;;;;;;5045869;28;20495;-73
2021/04/11 11:20:16;;;;;;;2.60;1.73;;;18.50;71.60;;;;;;5046399;28;20467;-74
2021/04/11 11:23:09;;;;;;;2.27;1.50;;;18.50;71.20;;;;;;5046097;28;20586;-74
2021/04/11 11:25:54;;;;;;;2.53;1.90;;;18.50;71.50;;;;;;5046441;28;20545;-73
2021/04/11 11:28:54;;;;;;;3.47;1.77;;;18.70;71.00;;;;;;5042319;28;20487;-73
2021/04/11 11:31:52;;;;;;;3.30;1.60;;;18.90;71.00;;;;;;5021120;28;20472;-73
2021/04/11 11:34:30;;;;;;;3.10;2.13;;;19.40;71.80;;;;;;5036903;28;20475;-73
2021/04/11 11:37:10;;;;;;;2.27;1.60;;;19.80;70.20;;;;;;5040411;28;20514;-73
2021/04/11 11:39:42;;;;;;;2.40;2.20;;;20.40;70.30;;;;;;5039443;28;20621;-73
2021/04/11 11:42:20;;;;;;;2.07;1.70;;;21.90;67.70;;;;;;5029255;28;20499;-73
2021/04/11 11:45:01;;;;;;;3.97;1.80;;;22.80;65.90;;;;;;5042216;28;21252;-73
2021/04/11 11:47:38;;;;;;;2.90;1.80;;;23.40;63.60;;;;;;5041055;28;20463;-72
2021/04/11 11:50:11;;;;;;;1.97;1.77;;;23.60;65.80;;;;;;5027850;28;20471;-73
2021/04/11 11:52:45;;;;;;;2.83;1.80;;;24.50;64.00;;;;;;5028497;28;20543;-74
2021/04/11 11:55:23;;;;;;;1.80;1.70;;;25.90;64.30;;;;;;5031525;28;20466;-72
2021/04/11 11:57:57;;;;;;;2.03;1.77;;;26.40;59.70;;;;;;5025230;28;20484;-72
2021/04/11 12:00:30;;;;;;;2.90;1.90;;;25.60;59.90;;;;;;5033538;28;20471;-73
2021/04/11 12:03:11;;;;;;;2.40;1.60;;;26.00;59.30;;;;;;5024082;28;20839;-72
2021/04/11 12:05:42;;;;;;;3.70;2.20;;;26.10;58.20;;;;;;5025114;28;20453;-72
2021/04/11 12:08:18;;;;;;;1.70;1.57;;;25.60;61.10;;;;;;5025001;28;20545;-72
2021/04/11 12:10:51;;;;;;;2.90;1.63;;;24.40;61.10;;;;;;5025622;28;20468;-72
2021/04/11 12:13:28;;;;;;;1.90;1.70;;;22.90;61.70;;;;;;5026288;28;20842;-72
2021/04/11 12:16:00;;;;;;;2.10;1.90;;;22.00;63.30;;;;;;5025619;28;20645;-72
2021/04/11 12:18:30;;;;;;;3.73;1.83;;;21.90;65.30;;;;;;5025521;28;20855;-72
2021/04/11 12:21:05;;;;;;;2.70;1.70;;;22.30;63.70;;;;;;5024798;28;20456;-73
2021/04/11 12:23:38;;;;;;;2.60;1.97;;;22.50;64.70;;;;;;5025385;28;20474;-72
2021/04/11 12:26:11;;;;;;;2.17;1.70;;;23.60;64.00;;;;;;5033114;28;20525;-72
2021/04/11 12:28:39;;;;;;;2.13;1.60;;;23.90;61.50;;;;;;5044379;28;20549;-73
2021/04/11 12:31:21;;;;;;;2.07;1.40;;;23.60;62.80;;;;;;5026277;28;20450;-73
2021/04/11 12:33:58;;;;;;;1.50;1.40;;;23.90;63.10;;;;;;5040002;28;21019;-74
2021/04/11 12:36:34;;;;;;;1.80;1.70;;;24.30;62.00;;;;;;5037648;28;20486;-68
2021/04/11 12:39:08;;;;;;;2.10;1.60;;;24.40;61.00;;;;;;5042657;28;20581;-70
2021/04/11 12:41:42;;;;;;;1.90;1.70;;;23.70;62.30;;;;;;5031585;28;20858;-70
2021/04/11 12:44:18;;;;;;;4.03;1.83;;;23.50;63.60;;;;;;5027256;28;20468;-69
2021/04/11 12:46:59;;;;;;;2.00;1.80;;;23.20;61.60;;;;;;5038025;28;20459;-68
2021/04/11 12:49:39;;;;;;;2.07;1.87;;;22.20;62.80;;;;;;5028800;28;20894;-70
2021/04/11 12:52:11;;;;;;;4.43;2.03;;;21.20;64.60;;;;;;5037517;28;20463;-70
2021/04/11 12:54:43;;;;;;;2.00;1.50;;;20.30;66.30;;;;;;5041922;28;20589;-69
2021/04/11 12:57:17;;;;;;;4.57;1.77;;;20.10;68.10;;;;;;5030496;28;20494;-68
2021/04/11 12:59:58;;;;;;;1.87;1.60;;;20.20;68.00;;;;;;5036608;28;20486;-68
2021/04/11 13:02:30;;;;;;;2.73;1.73;;;20.40;67.50;;;;;;5034526;28;20467;-70
2021/04/11 13:05:03;;;;;;;2.13;1.70;;;21.10;68.20;;;;;;5034121;28;20486;-69
2021/04/11 13:07:33;;;;;;;2.90;1.37;;;22.30;67.10;;;;;;5033306;28;20467;-69
2021/04/11 13:10:14;;;;;;;2.20;1.40;;;23.50;64.30;;;;;;5026430;28;20478;-69
2021/04/11 13:12:48;;;;;;;1.67;1.57;;;24.40;62.80;;;;;;5038050;28;20502;-69
2021/04/11 13:15:22;;;;;;;2.63;1.67;;;24.10;61.60;;;;;;5029604;28;20603;-69
2021/04/11 13:18:00;;;;;;;2.03;1.30;;;23.20;63.60;;;;;;5032466;28;20476;-69
2021/04/11 13:20:33;;;;;;;2.57;1.40;;;22.50;64.30;;;;;;5037234;28;20495;-68
2021/04/11 13:23:06;;;;;;;1.63;1.30;;;22.10;65.30;;;;;;5034069;28;20455;-69
2021/04/11 13:25:39;;;;;;;2.63;1.50;;;21.60;66.40;;;;;;5034078;28;20466;-69
2021/04/11 13:28:15;;;;;;;1.73;1.40;;;21.00;66.80;;;;;;5038693;28;21270;-68
2021/04/11 13:30:55;;;;;;;1.50;1.40;;;20.80;66.90;;;;;;5045387;28;20906;-69
2021/04/11 13:33:25;;;;;;;3.10;1.70;;;20.80;67.40;;;;;;5042902;28;20494;-69
2021/04/11 13:35:58;;;;;;;2.30;1.20;;;20.70;66.30;;;;;;5045966;28;20939;-70
2021/04/11 13:38:31;;;;;;;1.60;1.40;;;20.50;67.40;;;;;;5031833;28;20487;-69
2021/04/11 13:41:12;;;;;;;2.43;1.30;;;20.40;67.40;;;;;;5041863;28;20455;-70